• Join FlightAware (Why Join?)
  • Login
  • US Flag 
05:42AM EDT


 

Airport Tracker/Info


-or-


 

Live Flight TrackerFlight Track Log ✈ SWA2093 ✈ 14-Jul-2013 ✈ KLAS - KIND

Flight Track Log - Related Links

Times and Time Zones

All times are in EDT time to prevent confusion due to time zone crossing. See the SWA2093 flight status page for this flight to view local times or setup timezone preferences in your user account.

Time Position Orientation Groundspeed Altitude Reporting Facility
EDT Latitude Longitude Course Direction KTS MPH feet Rate Location/Type
01:32PM 36.0753 -115.1844 275° West 188 216 3,400  Level Los Angeles Center
01:33PM 36.0808 -115.2703 275° West 253 291 5,500 2,280 Climbing Los Angeles Center
01:34PM 36.1383 -115.2967 340° North 269 310 8,100 2,520 Climbing Los Angeles Center
01:35PM 36.1836 -115.2258 52° Northeast 278 320 10,400 1,620 Climbing Los Angeles Center
01:36PM 36.1756 -115.1531 98° East 319 367 11,100 1,920 Climbing Los Angeles Center
01:37PM 36.1428 -115.0433 110° East 354 407 13,900 2,880 Climbing Los Angeles Center
01:38PM 36.1767 -114.8947 74° East 376 433 17,100 2,640 Climbing Los Angeles Center
01:39PM 36.1986 -114.7617 78° East 393 452 19,400 2,160 Climbing Los Angeles Center
01:40PM 36.2214 -114.6261 78° East 403 464 21,700 2,160 Climbing Los Angeles Center
01:41PM 36.2644 -114.4886 69° East 424 488 23,900 2,460 Climbing Los Angeles Center
01:42PM 36.3053 -114.3553 69° East 417 480 26,800 2,220 Climbing Los Angeles Center
01:43PM 36.3447 -114.2250 69° East 406 467 28,600 1,680 Climbing Los Angeles Center
01:44PM 36.3939 -114.0625 69° East 416 479 30,300 900 Climbing Los Angeles Center
01:45PM 36.4372 -113.9194 69° East 437 503 30,500 900 Climbing Los Angeles Center
01:46PM 36.4850 -113.7656 69° East 471 542 32,200 1,320 Climbing Los Angeles Center
01:47PM 36.5281 -113.6183 70° East 470 541 33,500 1,260 Climbing Los Angeles Center
01:48PM 36.5831 -113.4358 69° East 472 543 35,100 1,440 Climbing Los Angeles Center
01:49PM 36.6369 -113.2522 70° East 472 543 36,500 900 Climbing Los Angeles Center
01:50PM 36.6814 -113.0992 70° East 472 543 37,000 240 Climbing Los Angeles Center
01:51PM 36.7253 -112.9475 70° East 469 540 37,000  Level Los Angeles Center
01:52PM 36.7697 -112.7958 70° East 468 539 37,000  Level Los Angeles Center
01:54PM 36.8133 -112.6453 70° East 466 536 37,000  Level Los Angeles Center
01:55PM 36.8644 -112.4658 70° East 462 532 37,000  Level Los Angeles Center
01:56PM 36.9075 -112.3158 70° East 462 532 37,000  Level Los Angeles Center
01:57PM 36.9500 -112.1656 70° East 461 531 37,000  Level Los Angeles Center
01:58PM 36.9928 -112.0144 70° East 463 533 37,000  Level Los Angeles Center
01:59PM 37.0353 -111.8636 71° East 463 533 37,000  Level Los Angeles Center
02:00PM 37.0856 -111.6831 71° East 460 529 37,000  Level Los Angeles Center
02:01PM 37.1361 -111.5017 71° East 462 532 37,000  Level Los Angeles Center
02:02PM 37.1783 -111.3500 71° East 461 531 37,000  Level Los Angeles Center
02:03PM 37.2189 -111.1994 71° East 460 529 37,000  Level Los Angeles Center
02:04PM 37.2667 -111.0214 71° East 453 521 37,000  Level Denver Center
02:05PM 37.3139 -110.8419 72° East 452 520 37,000  Level Denver Center
02:06PM 37.3544 -110.6919 71° East 454 522 37,000  Level Denver Center
02:07PM 37.3942 -110.5414 72° East 454 522 37,000  Level Denver Center
02:08PM 37.4347 -110.3906 71° East 457 526 37,000  Level Denver Center
02:09PM 37.4733 -110.2400 72° East 455 524 37,000  Level Denver Center
02:10PM 37.5194 -110.0669 71° East 462 532 37,000  Level Denver Center
02:12PM 37.5581 -109.9200 72° East 463 533 37,000  Level Denver Center
02:13PM 37.6017 -109.7492 72° East 459 528 37,000  Level Denver Center
02:14PM 37.6456 -109.5775 72° East 459 528 37,000  Level Denver Center
02:15PM 37.6897 -109.4064 72° East 458 527 37,000  Level Denver Center
02:16PM 37.7269 -109.2614 72° East 454 522 37,000  Level Denver Center
02:17PM 37.7689 -109.0919 73° East 452 520 37,000  Level Denver Center
02:18PM 37.8178 -108.9542 66° East 448 516 37,000  Level Denver Center
02:19PM 37.8722 -108.7892 67° East 452 520 37,000  Level Denver Center
02:20PM 37.9211 -108.6475 66° East 456 525 37,000  Level Denver Center
02:21PM 37.9767 -108.4836 67° East 454 522 37,000  Level Denver Center
02:22PM 38.0250 -108.3419 67° East 455 524 37,000  Level Denver Center
02:23PM 38.0747 -108.1906 67° East 460 529 37,000  Level Denver Center
02:24PM 38.1300 -108.0236 67° East 461 531 37,000  Level Denver Center
02:25PM 38.1775 -107.8817 67° East 459 528 37,000  Level Denver Center
02:26PM 38.2317 -107.7156 67° East 457 526 37,000  Level Denver Center
02:27PM 38.2781 -107.5753 67° East 453 521 37,000  Level Denver Center
02:28PM 38.3328 -107.4086 67° East 456 525 37,000  Level Denver Center
02:29PM 38.3789 -107.2667 67° East 455 524 37,000  Level Denver Center
02:30PM 38.4269 -107.1175 68° East 456 525 37,000  Level Denver Center
02:31PM 38.4675 -106.9639 71° East 460 529 37,000  Level Denver Center
02:32PM 38.4981 -106.8075 76° East 456 525 37,000  Level Denver Center
02:34PM 38.5350 -106.6175 76° East 459 528 37,000  Level Denver Center
02:35PM 38.5728 -106.4272 76° East 461 531 37,000  Level Denver Center
02:36PM 38.6017 -106.2697 77° East 459 528 37,000  Level Denver Center
02:37PM 38.6383 -106.0853 76° East 459 528 37,000  Level Denver Center
02:38PM 38.6681 -105.9264 76° East 460 529 37,000  Level Denver Center
02:39PM 38.6986 -105.7692 76° East 458 527 37,000  Level Denver Center
02:40PM 38.7275 -105.6111 77° East 459 528 37,000  Level Denver Center
02:41PM 38.7572 -105.4544 76° East 455 524 37,000  Level Denver Center
02:42PM 38.7858 -105.2983 77° East 453 521 37,000  Level Denver Center
02:43PM 38.8189 -105.1131 77° East 447 514 37,000  Level Denver Center
02:44PM 38.8475 -104.9578 77° East 449 517 37,000  Level Denver Center
02:45PM 38.8753 -104.8014 77° East 452 520 37,000  Level Denver Center
02:46PM 38.9036 -104.6478 77° East 447 514 37,000  Level Denver Center
02:47PM 38.9306 -104.4931 77° East 447 514 37,000  Level Denver Center
02:48PM 38.9631 -104.3067 77° East 449 517 37,000  Level Denver Center
02:49PM 38.9908 -104.1500 77° East 451 519 37,000 60 Level Denver Center
02:50PM 39.0122 -104.0261 77° East 449 517 37,200 840 Climbing Denver Center
02:51PM 39.0444 -103.8381 78° East 451 519 38,800 840 Climbing Denver Center
02:52PM 39.0706 -103.6850 78° East 444 511 39,000 60 Climbing Denver Center
02:53PM 39.1000 -103.5028 78° East 436 502 39,000  Level Denver Center
02:54PM 39.1292 -103.3508 76° East 438 504 39,000  Level Denver Center
02:56PM 39.1814 -103.1775 69° East 434 499 39,000  Level Denver Center
02:57PM 39.2225 -103.0325 70° East 432 497 39,000  Level Denver Center
02:58PM 39.2642 -102.8878 70° East 432 497 39,000  Level Denver Center
02:59PM 39.3111 -102.7253 69° East 426 490 39,000  Level Denver Center
03:00PM 39.3544 -102.5736 70° East 427 491 39,000  Level Denver Center
03:01PM 39.3919 -102.4286 71° East 427 491 39,000  Level Denver Center
03:02PM 39.4050 -102.2744 84° East 434 499 39,000  Level Denver Center
03:03PM 39.4219 -102.1036 83° East 431 496 39,000  Level Denver Center
03:04PM 39.4356 -101.9569 83° East 433 498 39,000  Level Denver Center
03:05PM 39.4217 -101.7853 96° East 431 496 39,000  Level Denver Center
03:06PM 39.4019 -101.6422 100° East 426 490 39,000  Level Denver Center
03:07PM 39.3797 -101.4758 100° East 422 486 39,000  Level Denver Center
03:08PM 39.3597 -101.3344 100° East 418 481 39,000  Level Denver Center
03:09PM 39.3372 -101.1719 100° East 413 475 39,000  Level Denver Center
03:10PM 39.3178 -101.0308 100° East 417 480 39,000  Level Denver Center
03:11PM 39.2933 -100.8678 101° East 415 478 39,000  Level Denver Center
03:12PM 39.2983 -100.7294 87° East 408 470 39,000  Level Denver Center
03:13PM 39.3139 -100.5683 83° East 404 465 39,000  Level Denver Center
03:14PM 39.3264 -100.4303 83° East 406 467 39,000  Level Denver Center
03:15PM 39.3439 -100.2442 83° East 410 472 39,000  Level Denver Center
03:17PM 39.3578 -100.1072 82° East 405 466 39,000  Level Denver Center
03:18PM 39.3725 -99.9433 83° East 410 472 39,000  Level Denver Center
03:19PM 39.3850 -99.8061 83° East 406 467 39,000  Level Denver Center
03:20PM 39.3989 -99.6450 84° East 404 465 39,000  Level Denver Center
03:21PM 39.4117 -99.5064 83° East 406 467 39,000  Level Denver Center
03:22PM 39.4256 -99.3467 84° East 401 461 39,000  Level Denver Center
03:23PM 39.4375 -99.2119 83° East 397 457 39,000  Level Denver Center
03:24PM 39.4497 -99.0636 84° East 394 453 39,000  Level Denver Center
03:25PM 39.4611 -98.9239 84° East 392 451 39,000  Level Denver Center
03:26PM 39.4736 -98.7836 83° East 393 452 39,000  Level Denver Center
03:27PM 39.4844 -98.6439 84° East 392 451 39,000  Level Denver Center
03:28PM 39.4972 -98.4764 84° East 390 449 39,000  Level Denver Center
03:29PM 39.5078 -98.3386 84° East 387 445 39,000  Level Denver Center
03:30PM 39.5219 -98.1547 84° East 384 442 39,000  Level Kansas City Center
03:31PM 39.5325 -98.0167 84° East 383 441 39,000  Level Kansas City Center
03:32PM 39.5439 -97.8692 84° East 386 444 39,000  Level Kansas City Center
03:33PM 39.5536 -97.7342 85° East 380 437 39,000  Level Kansas City Center
03:34PM 39.5628 -97.5983 85° East 380 437 39,000  Level Kansas City Center
03:35PM 39.5725 -97.4583 85° East 388 447 39,000  Level Kansas City Center
03:36PM 39.5831 -97.3144 85° East 397 457 39,000  Level Kansas City Center
03:37PM 39.5947 -97.1542 85° East 394 453 39,000  Level Kansas City Center
03:39PM 39.6039 -97.0086 85° East 402 463 39,000  Level Kansas City Center
03:40PM 39.6139 -96.8669 85° East 396 456 39,000  Level Kansas City Center
03:41PM 39.6247 -96.7053 85° East 399 459 39,000  Level Kansas City Center
03:42PM 39.6322 -96.5697 86° East 396 456 39,000  Level Kansas City Center
03:43PM 39.6414 -96.4122 86° East 390 449 39,000  Level Kansas City Center
03:44PM 39.6503 -96.2756 85° East 395 455 39,000  Level Kansas City Center
03:45PM 39.6597 -96.1175 86° East 393 452 39,000  Level Kansas City Center
03:46PM 39.6669 -95.9836 86° East 389 448 39,000  Level Kansas City Center
03:47PM 39.6742 -95.8475 86° East 392 451 39,000  Level Kansas City Center
03:48PM 39.6844 -95.6883 85° East 394 453 39,000  Level Kansas City Center
03:49PM 39.6917 -95.5519 86° East 394 453 39,000  Level Kansas City Center
03:50PM 39.6992 -95.3914 86° East 397 457 39,000  Level Kansas City Center
03:51PM 39.7061 -95.2561 86° East 391 450 39,000  Level Kansas City Center
03:52PM 39.7139 -95.1000 86° East 387 445 39,000  Level Kansas City Center
03:53PM 39.7203 -94.9653 86° East 387 445 39,000  Level Kansas City Center
03:54PM 39.7278 -94.8078 86° East 389 448 39,000  Level Kansas City Center
03:55PM 39.7336 -94.6744 87° East 386 444 39,000  Level Kansas City Center
03:56PM 39.7394 -94.5383 87° East 387 445 39,000  Level Kansas City Center
03:57PM 39.7456 -94.3828 87° East 390 449 39,000  Level Kansas City Center
03:58PM 39.7506 -94.2478 87° East 391 450 39,000  Level Kansas City Center
03:59PM 39.7572 -94.0925 87° East 386 444 39,000  Level Kansas City Center
04:00PM 39.7636 -93.9575 86° East 390 449 39,000  Level Kansas City Center
04:01PM 39.7689 -93.8003 87° East 389 448 39,000  Level Kansas City Center
04:02PM 39.7739 -93.6511 87° East 392 451 39,000  Level Kansas City Center
04:03PM 39.7792 -93.5086 87° East 396 456 39,000  Level Kansas City Center
04:04PM 39.7822 -93.3672 88° East 396 456 39,000  Level Kansas City Center
04:05PM 39.7883 -93.2286 87° East 392 451 39,000  Level Kansas City Center
04:06PM 39.7939 -93.0892 87° East 392 451 39,000  Level Kansas City Center
04:08PM 39.7989 -92.9219 88° East 390 449 39,000  Level Kansas City Center
04:09PM 39.8025 -92.7806 88° East 395 455 39,000  Level Kansas City Center
04:10PM 39.8083 -92.6417 87° East 393 452 39,000  Level Kansas City Center
04:11PM 39.8114 -92.5003 88° East 395 455 39,000  Level Kansas City Center
04:12PM 39.8156 -92.3306 88° East 396 456 39,000  Level Kansas City Center
04:13PM 39.8197 -92.1894 88° East 397 457 39,000  Level Kansas City Center
04:14PM 39.8225 -92.0458 89° East 400 460 39,000  Level Kansas City Center
04:15PM 39.8264 -91.9031 88° East 400 460 39,000  Level Kansas City Center
04:16PM 39.8294 -91.7600 88° East 401 461 39,000  Level Kansas City Center
04:17PM 39.8336 -91.5861 88° East 404 465 39,000  Level Kansas City Center
04:18PM 39.8358 -91.4419 89° East 404 465 39,000  Level Kansas City Center
04:19PM 39.8378 -91.2972 89° East 404 465 39,000  Level Kansas City Center
04:20PM 39.8386 -91.1519 90° East 405 466 39,000 -240 Level Kansas City Center
04:21PM 39.8269 -90.9792 95° East 407 468 38,500 -720 Descending Kansas City Center
04:22PM 39.8019 -90.8394 103° East 402 463 37,500 -960 Descending Kansas City Center
04:23PM 39.7761 -90.6981 103° East 403 464 36,600 -900 Descending Kansas City Center
04:24PM 39.7514 -90.5528 102° East 410 472 35,700 -780 Descending Kansas City Center
04:25PM 39.7531 -90.3986 89° East 431 496 35,000 -360 Descending Kansas City Center
04:26PM 39.7572 -90.2472 88° East 426 490 35,000  Level Kansas City Center
04:27PM 39.7625 -90.0631 88° East 427 491 35,000  Level Kansas City Center
04:28PM 39.7669 -89.9097 88° East 426 490 35,000 -300 Level Kansas City Center
04:29PM 39.7706 -89.7572 88° East 424 488 34,400 -480 Descending Kansas City Center
04:30PM 39.7756 -89.6039 88° East 426 490 34,000 -240 Descending Kansas City Center
04:31PM 39.7792 -89.4511 88° East 425 489 34,000 -60 Level Kansas City Center
04:32PM 39.7839 -89.2669 88° East 426 490 33,900 -600 Descending Kansas City Center
04:33PM 39.7867 -89.1136 89° East 427 491 32,800 -1,020 Descending Kansas City Center
04:34PM 39.7900 -88.9561 88° East 433 498 31,800 -1,020 Descending Kansas City Center
04:35PM 39.7931 -88.7981 89° East 437 503 30,800 -1,020 Descending Kansas City Center
04:36PM 39.7967 -88.6392 88° East 440 506 29,800 -1,380 Descending Kansas City Center
04:38PM 39.8022 -88.4808 87° East 439 505 28,000 -2,220 Descending Kansas City Center
04:39PM 39.8056 -88.3008 89° East 422 486 25,300 -1,980 Descending Kansas City Center
04:40PM 39.8081 -88.1575 89° East 411 473 24,000 -660 Descending Kansas City Center
04:41PM 39.8072 -88.0236 90° East 395 455 24,000  Level Kansas City Center
04:42PM 39.8081 -87.8878 89° East 384 442 24,000 -420 Level Kansas City Center
04:43PM 39.8086 -87.7483 90° East 381 438 23,200 -1,380 Descending Kansas City Center
04:44PM 39.8103 -87.6086 89° East 382 440 21,200 -2,100 Descending Kansas City Center
04:45PM 39.8117 -87.4186 89° East 367 422 18,400 -2,100 Descending Indianapolis Center
04:46PM 39.8119 -87.2931 90° East 356 410 16,500 -2,040 Descending Indianapolis Center
04:47PM 39.8136 -87.1672 89° East 349 402 14,300 -2,220 Descending Indianapolis Center
04:48PM 39.8144 -87.0428 89° East 347 399 12,000 -1,140 Descending Indianapolis Center
04:49PM 39.8144 -86.9289 90° East 330 380 12,000 -720 Level Indianapolis Center
04:50PM 39.8139 -86.8025 90° East 297 342 10,600 -1,500 Descending Indianapolis Center
04:51PM 39.7772 -86.7206 120° Southeast 280 322 9,000 -1,800 Descending Indianapolis Center
04:52PM 39.7233 -86.6522 136° Southeast 272 313 7,000 -1,860 Descending Indianapolis Center
04:53PM 39.6800 -86.5758 126° Southeast 273 314 5,200 -1,860 Descending Indianapolis Center
04:54PM 39.6589 -86.4889 107° East 264 304 3,200 -1,260 Descending Indianapolis Center
04:55PM 39.6486 -86.4078 99° East 206 237 2,700 -780 Descending Indianapolis Center
04:56PM 39.6714 -86.3653 55° Northeast 174 200 1,600 -900 Descending Indianapolis Center
04:57PM 39.6989 -86.3303 44° Northeast 151 174 900 -420 Descending Indianapolis Center
04:58PM 39.7267 -86.2953 44° Northeast 149 171 800 -120 Descending Indianapolis Center